createdAt,value
2023-01-17T12:04:45.493Z,1079.85
2023-01-17T12:06:23.340Z,152.25
2023-01-17T12:07:25.974Z,123.85
2023-01-17T12:08:31.609Z,526.70
2023-01-17T12:09:40.104Z,116.57
2023-01-17T12:10:57.592Z,102.63
2023-01-17T12:12:36.995Z,223.05
2023-01-17T12:14:01.752Z,247.15
2023-01-17T12:15:17.146Z,158.80
2023-01-17T12:16:31.602Z,64.93
2023-01-17T12:17:45.234Z,117.88
2023-01-17T12:18:57.467Z,76.18
2023-01-17T12:20:00.944Z,24.63
2023-01-17T12:21:31.450Z,55.80
2023-01-17T12:22:45.111Z,18.17
2023-01-17T12:23:50.698Z,110.30
2023-01-17T12:24:56.253Z,109.93
2023-01-17T12:26:13.291Z,159.82
2023-01-17T12:27:16.343Z,14.60
2023-01-17T12:28:56.257Z,30.88
2023-01-17T12:30:07.824Z,57.92
2023-01-17T12:31:40.128Z,19.70
2023-01-17T12:33:31.159Z,51.03
2023-01-17T12:34:39.112Z,23.58
2023-01-17T12:35:46.476Z,33.60
2023-01-17T12:36:52.254Z,42.17
2023-01-17T12:38:04.638Z,42.78
2023-01-17T12:39:07.976Z,18.80
2023-01-17T12:40:17.029Z,70.25
2023-01-17T12:41:46.065Z,22.77
2023-01-17T12:43:01.074Z,14.32
2023-01-17T12:44:00.758Z,44.60
2023-01-17T12:45:05.661Z,47.47
2023-01-17T12:46:28.689Z,46.95
2023-01-17T12:47:25.680Z,22.13
2023-01-17T12:48:28.633Z,26.75
2023-01-17T12:49:45.987Z,33.20
2023-01-17T12:50:50.181Z,29.88
2023-01-17T12:51:53.044Z,15.52
2023-01-17T12:52:58.606Z,13.73
2023-01-17T12:53:55.129Z,46.72
2023-01-17T12:54:58.025Z,20.58
2023-01-17T12:56:24.301Z,16.35
2023-01-17T12:57:36.679Z,30.30
2023-01-17T12:59:01.107Z,8.27
2023-01-17T13:00:10.766Z,28.20
2023-01-17T13:01:23.829Z,25.00
2023-01-17T13:02:47.727Z,10.18
2023-01-17T13:04:00.346Z,25.88
2023-01-17T13:05:11.361Z,16.55
2023-01-17T13:06:08.438Z,9.48
2023-01-17T13:07:31.076Z,6.25
2023-01-17T13:08:41.388Z,18.95
2023-01-17T13:09:46.201Z,15.45
2023-01-17T13:10:56.217Z,11.13
2023-01-17T13:12:01.839Z,10.15
2023-01-17T13:13:04.187Z,11.75
2023-01-17T13:14:01.961Z,8.13
2023-01-17T13:14:59.662Z,28.75
2023-01-17T13:16:11.837Z,8.38
2023-01-17T13:17:23.602Z,11.38
2023-01-17T13:18:25.870Z,11.68
2023-01-17T13:19:44.341Z,11.82
2023-01-17T13:20:43.679Z,6.03
2023-01-17T13:21:41.366Z,8.00
2023-01-17T13:22:39.959Z,7.75
2023-01-17T13:23:59.141Z,7.35
2023-01-17T13:25:12.754Z,5.38
2023-01-17T13:26:26.704Z,12.15
2023-01-17T13:27:46.661Z,8.23
2023-01-17T13:29:05.113Z,15.30
2023-01-17T13:30:50.275Z,10.23
2023-01-17T13:32:55.416Z,7.05
2023-01-17T13:34:10.687Z,13.52
2023-01-17T13:35:07.268Z,9.50
2023-01-17T13:36:22.057Z,9.93
2023-01-17T13:37:38.515Z,11.60
2023-01-17T13:38:44.387Z,11.18
2023-01-17T13:39:52.008Z,9.73
2023-01-17T13:41:25.159Z,12.75
2023-01-17T13:42:39.088Z,9.02
2023-01-17T13:43:39.781Z,13.43
2023-01-17T13:44:37.505Z,8.10
2023-01-17T13:45:37.251Z,8.80
2023-01-17T13:46:56.990Z,8.73
2023-01-17T13:47:54.154Z,8.80
2023-01-17T13:49:23.833Z,6.75
2023-01-17T13:50:40.632Z,5.25
2023-01-17T13:52:09.663Z,5.82
2023-01-17T13:53:34.165Z,8.63
2023-01-17T13:54:34.447Z,5.22
2023-01-17T13:55:50.771Z,6.57
2023-01-17T13:56:47.457Z,4.47
2023-01-17T13:57:44.255Z,7.47
2023-01-17T13:58:49.498Z,6.22
2023-01-17T13:59:46.174Z,4.18
2023-01-17T14:00:45.542Z,9.63
2023-01-17T14:01:45.333Z,4.63
2023-01-17T14:02:43.025Z,4.63
2023-01-17T14:03:52.050Z,3.90
2023-01-17T14:05:21.396Z,5.07
2023-01-17T14:06:33.122Z,3.67
2023-01-17T14:07:33.938Z,9.30
2023-01-17T14:08:32.000Z,6.13
2023-01-17T14:09:40.633Z,4.72
2023-01-17T14:10:43.770Z,11.40
2023-01-17T14:11:57.556Z,6.78
2023-01-17T14:12:55.642Z,9.25
2023-01-17T14:13:52.693Z,8.98
2023-01-17T14:14:52.185Z,5.93
2023-01-17T14:15:50.190Z,6.82
2023-01-17T14:16:46.849Z,7.20
2023-01-17T14:17:50.957Z,7.10
2023-01-17T14:18:48.122Z,7.30
2023-01-17T14:19:51.071Z,9.32
2023-01-17T14:20:50.870Z,6.60
2023-01-17T14:21:47.611Z,6.05
2023-01-17T14:22:59.645Z,5.63
2023-01-17T14:24:03.955Z,5.82
2023-01-17T14:25:11.764Z,7.65
2023-01-17T14:26:20.251Z,19.10
2023-01-17T14:27:23.515Z,34.10
2023-01-17T14:28:31.338Z,60.78
2023-01-17T14:29:44.000Z,108.28
2023-01-17T14:30:40.746Z,37.67
2023-01-17T14:31:37.761Z,283.95
2023-01-17T14:32:37.872Z,421.33
2023-01-17T14:33:37.498Z,715.50
2023-01-17T14:34:34.877Z,132.45
2023-01-17T14:35:31.517Z,29.50
2023-01-17T14:36:34.579Z,81.53
2023-01-17T14:37:52.279Z,270.27
2023-01-17T14:38:48.838Z,95.75
2023-01-17T14:39:47.704Z,107.70
2023-01-17T14:40:54.967Z,50.55
2023-01-17T14:41:52.021Z,63.22
2023-01-17T14:42:58.920Z,202.10
2023-01-17T14:43:58.468Z,288.38
2023-01-17T14:45:05.614Z,78.03
2023-01-17T14:46:05.851Z,144.43
2023-01-17T14:47:02.501Z,288.40
2023-01-17T14:48:01.476Z,80.07
2023-01-17T14:49:06.028Z,96.70
2023-01-17T14:50:15.658Z,201.35
2023-01-17T14:51:14.239Z,127.10
2023-01-17T14:52:16.660Z,105.70
2023-01-17T14:53:13.342Z,71.70
2023-01-17T14:54:21.451Z,214.80
2023-01-17T14:55:20.603Z,198.30
2023-01-17T14:56:17.806Z,33.88
2023-01-17T14:57:35.517Z,242.43
2023-01-17T14:58:42.423Z,44.72
2023-01-17T14:59:39.091Z,22.02
2023-01-17T15:00:39.336Z,148.50
2023-01-17T15:01:36.485Z,289.73
2023-01-17T15:02:33.374Z,62.05
2023-01-17T15:03:35.316Z,339.05
2023-01-17T15:04:35.538Z,25.67
2023-01-17T15:05:33.258Z,29.60
2023-01-17T15:06:41.510Z,61.17
2023-01-17T15:07:38.228Z,26.85
2023-01-17T15:08:35.639Z,30.98
2023-01-17T15:09:36.698Z,33.45
2023-01-17T15:10:34.175Z,14.15
2023-01-17T15:11:35.395Z,23.25
2023-01-17T15:12:32.246Z,22.52
2023-01-17T15:13:45.220Z,32.13
2023-01-17T15:15:43.117Z,25.80
2023-01-17T15:16:41.103Z,62.15
2023-01-17T15:17:37.739Z,17.48
2023-01-17T15:18:41.687Z,11.35
2023-01-17T15:19:48.882Z,12.57
2023-01-17T15:21:00.001Z,13.45
2023-01-17T15:21:56.764Z,14.38
2023-01-17T15:22:53.385Z,75.03
2023-01-17T15:23:56.616Z,22.10
2023-01-17T15:24:53.684Z,32.75
2023-01-17T15:25:52.880Z,19.00
2023-01-17T15:26:49.675Z,17.27
2023-01-17T15:27:46.310Z,52.88
2023-01-17T15:28:44.969Z,16.75
2023-01-17T15:29:42.247Z,19.58
2023-01-17T15:31:08.818Z,13.65
2023-01-17T15:32:07.266Z,26.30
2023-01-17T15:33:04.133Z,15.80
2023-01-17T15:34:16.546Z,10.93
2023-01-17T15:35:18.037Z,14.23
2023-01-17T15:36:32.445Z,11.45
2023-01-17T15:37:37.670Z,16.35
2023-01-17T15:38:39.199Z,14.55
2023-01-17T15:39:41.034Z,11.93
2023-01-17T15:40:43.688Z,10.57
2023-01-17T15:41:40.716Z,14.25
2023-01-17T15:42:42.514Z,14.68
2023-01-17T15:43:40.893Z,13.55
2023-01-17T15:44:48.076Z,10.35
2023-01-17T15:45:55.612Z,16.10
2023-01-17T15:46:52.820Z,11.35
2023-01-17T15:47:49.568Z,12.52
2023-01-17T15:48:46.226Z,45.88
2023-01-17T15:49:51.547Z,26.23
2023-01-17T15:50:48.175Z,28.77
2023-01-17T15:51:54.268Z,21.48
2023-01-17T15:52:52.826Z,26.40
2023-01-17T15:53:49.537Z,40.45
2023-01-17T15:54:53.430Z,21.77
2023-01-17T15:55:50.128Z,17.77
2023-01-17T15:56:46.710Z,17.85
2023-01-17T15:57:47.555Z,21.00
2023-01-17T15:58:45.047Z,17.33
2023-01-17T15:59:59.533Z,13.43
2023-01-17T16:00:57.276Z,17.77
2023-01-17T16:01:57.913Z,17.30
2023-01-17T16:02:58.944Z,35.15
2023-01-17T16:03:55.919Z,21.45
2023-01-17T16:04:52.522Z,11.68
2023-01-17T16:05:49.871Z,14.13
2023-01-17T16:06:46.870Z,13.88
2023-01-17T16:07:43.531Z,17.13
2023-01-17T16:08:52.267Z,15.60
2023-01-17T16:09:49.875Z,23.17
2023-01-17T16:10:46.408Z,18.10
2023-01-17T16:11:44.032Z,14.40
2023-01-17T16:12:41.397Z,16.35
2023-01-17T16:13:39.242Z,18.58
2023-01-17T16:14:53.605Z,23.25
2023-01-17T16:15:52.592Z,32.42
2023-01-17T16:16:53.521Z,21.58
2023-01-17T16:17:53.569Z,97.85
2023-01-17T16:18:58.941Z,31.45
2023-01-17T16:19:55.634Z,15.00
2023-01-17T16:20:52.202Z,13.35
2023-01-17T16:21:48.851Z,13.90
2023-01-17T16:22:46.314Z,16.42
2023-01-17T16:23:42.963Z,26.40
2023-01-17T16:24:39.666Z,15.43
2023-01-17T16:25:36.279Z,19.20
2023-01-17T16:26:32.867Z,66.93
2023-01-17T16:27:29.677Z,274.15
2023-01-17T16:28:26.265Z,535.95
2023-01-17T16:29:23.707Z,442.75
2023-01-17T16:30:23.944Z,165.27
2023-01-17T16:31:20.602Z,256.85
2023-01-17T16:32:17.280Z,343.25
2023-01-17T16:33:14.056Z,598.53
2023-01-17T16:34:12.100Z,508.95
2023-01-17T16:35:19.261Z,154.35
2023-01-17T16:36:16.898Z,511.42
2023-01-17T16:37:13.529Z,504.20
2023-01-17T16:38:12.060Z,761.92
2023-01-17T16:39:12.059Z,733.40
2023-01-17T16:40:09.346Z,268.25
2023-01-17T16:41:06.139Z,247.02
2023-01-17T16:42:03.065Z,229.38
2023-01-17T16:43:00.845Z,410.58
2023-01-17T16:44:02.476Z,501.17
2023-01-17T16:44:59.091Z,488.98
2023-01-17T16:45:55.916Z,1268.57
2023-01-17T16:46:52.563Z,404.13
2023-01-17T16:47:50.300Z,245.93
2023-01-17T16:48:47.087Z,197.55
2023-01-17T16:49:43.700Z,279.55
2023-01-17T16:50:48.216Z,252.15
2023-01-17T16:51:47.817Z,509.05
2023-01-17T16:52:44.469Z,441.25
2023-01-17T16:53:41.121Z,556.90
2023-01-17T16:54:37.721Z,122.10
2023-01-17T16:55:34.378Z,258.10
2023-01-17T16:56:31.197Z,79.80
2023-01-17T16:57:27.823Z,129.38
2023-01-17T16:58:24.589Z,48.80
2023-01-17T16:59:21.377Z,463.52
2023-01-17T17:00:18.710Z,385.83
2023-01-17T17:01:17.355Z,125.78
2023-01-17T17:02:15.680Z,64.22
2023-01-17T17:03:21.171Z,234.23
2023-01-17T17:04:17.832Z,309.23
2023-01-17T17:05:14.605Z,88.53
2023-01-17T17:06:12.175Z,101.97
2023-01-17T17:07:08.762Z,106.93
2023-01-17T17:08:05.639Z,196.27
2023-01-17T17:09:02.351Z,222.05
2023-01-17T17:09:59.022Z,215.73
2023-01-17T17:11:09.927Z,666.80
2023-01-17T17:12:06.791Z,306.80
2023-01-17T17:13:03.418Z,509.65
2023-01-17T17:14:00.115Z,641.90
2023-01-17T17:14:56.768Z,196.18
2023-01-17T17:15:53.412Z,94.60
2023-01-17T17:16:52.073Z,493.92
2023-01-17T17:17:48.712Z,141.23
2023-01-17T17:18:47.237Z,253.98
2023-01-17T17:19:43.869Z,204.55
2023-01-17T17:20:40.639Z,97.43
2023-01-17T17:21:40.356Z,677.38
2023-01-17T17:22:37.083Z,141.73
2023-01-17T17:23:33.688Z,45.22
2023-01-17T17:24:30.259Z,107.30
2023-01-17T17:25:26.897Z,140.73
2023-01-17T17:26:26.851Z,337.73
2023-01-17T17:27:27.715Z,127.30
2023-01-17T17:28:24.451Z,93.75
2023-01-17T17:29:21.233Z,53.42
2023-01-17T17:30:18.493Z,52.80
2023-01-17T17:31:15.173Z,56.20
2023-01-17T17:32:11.832Z,83.07
2023-01-17T17:33:09.548Z,17.08
2023-01-17T17:34:09.960Z,36.40
2023-01-17T17:35:06.818Z,44.72
2023-01-17T17:36:05.754Z,52.88
2023-01-17T17:37:03.839Z,63.28
2023-01-17T17:38:00.551Z,143.68
2023-01-17T17:38:57.836Z,36.10
2023-01-17T17:39:55.388Z,178.70
2023-01-17T17:40:51.975Z,50.53
2023-01-17T17:41:48.651Z,35.80
2023-01-17T17:42:45.209Z,68.80
2023-01-17T17:43:41.797Z,104.15
2023-01-17T17:44:38.418Z,102.78
2023-01-17T17:45:34.930Z,89.55
2023-01-17T17:46:33.748Z,210.30
2023-01-17T17:47:30.606Z,64.40
2023-01-17T17:48:27.173Z,112.75
2023-01-17T17:49:23.901Z,26.65
2023-01-17T17:50:20.504Z,37.22
2023-01-17T17:51:24.152Z,37.78
2023-01-17T17:52:20.943Z,40.50
2023-01-17T17:53:17.697Z,22.35
2023-01-17T17:54:16.185Z,17.20
2023-01-17T17:55:15.523Z,24.20
2023-01-17T17:56:12.099Z,11.35
2023-01-17T17:57:09.545Z,31.83
2023-01-17T17:58:06.271Z,7.40
2023-01-17T17:59:05.021Z,10.75
2023-01-17T18:00:01.740Z,28.98
2023-01-17T18:01:02.060Z,17.95
2023-01-17T18:01:59.875Z,54.85
2023-01-17T18:02:56.684Z,33.78
2023-01-17T18:03:57.645Z,36.50
2023-01-17T18:04:54.273Z,63.05
2023-01-17T18:05:50.838Z,69.28
2023-01-17T18:06:47.663Z,71.65
2023-01-17T18:07:44.403Z,25.25
2023-01-17T18:08:41.068Z,22.80
2023-01-17T18:09:39.318Z,35.05
2023-01-17T18:10:35.933Z,47.28
2023-01-17T18:11:32.746Z,58.47
2023-01-17T18:12:30.674Z,45.28
2023-01-17T18:13:27.578Z,24.63
2023-01-17T18:14:24.492Z,36.83
2023-01-17T18:15:21.577Z,22.73
2023-01-17T18:16:30.106Z,21.70
2023-01-17T18:17:26.961Z,44.90
2023-01-17T18:18:24.917Z,29.50
2023-01-17T18:19:26.202Z,11.20
2023-01-17T18:20:23.023Z,29.05
2023-01-17T18:21:26.663Z,17.08
2023-01-17T18:22:24.404Z,17.42
2023-01-17T18:23:20.973Z,26.13
2023-01-17T18:24:20.398Z,22.70
2023-01-17T18:25:16.979Z,15.35
2023-01-17T18:26:23.068Z,37.60
2023-01-17T18:27:19.880Z,23.02
2023-01-17T18:28:16.451Z,31.35
2023-01-17T18:29:15.942Z,30.00
2023-01-17T18:30:12.802Z,14.07
2023-01-17T18:31:09.543Z,23.08
2023-01-17T18:32:06.214Z,28.02
2023-01-17T18:33:02.826Z,32.88
2023-01-17T18:34:03.219Z,60.95
2023-01-17T18:34:59.819Z,118.43
2023-01-17T18:35:58.758Z,45.42
2023-01-17T18:36:57.778Z,34.17
2023-01-17T18:37:54.591Z,82.95
2023-01-17T18:38:52.179Z,29.52
2023-01-17T18:39:49.210Z,40.20
2023-01-17T18:40:45.808Z,16.42
2023-01-17T18:41:43.173Z,33.42
2023-01-17T18:42:39.865Z,29.65
2023-01-17T18:43:36.977Z,18.27
2023-01-17T18:44:33.643Z,40.42
2023-01-17T18:45:30.390Z,10.65
2023-01-17T18:46:27.421Z,52.70
2023-01-17T18:47:24.033Z,52.97
2023-01-17T18:48:20.691Z,26.08
2023-01-17T18:49:19.362Z,54.05
2023-01-17T18:50:16.180Z,30.73
2023-01-17T18:51:15.120Z,82.22
2023-01-17T18:52:12.248Z,54.72
2023-01-17T18:53:08.808Z,15.32
2023-01-17T18:54:07.216Z,138.98
2023-01-17T18:55:04.705Z,65.47
2023-01-17T18:56:04.702Z,31.77
2023-01-17T18:57:01.350Z,53.05
2023-01-17T18:57:58.039Z,138.50
2023-01-17T18:58:55.638Z,52.55
2023-01-17T18:59:52.358Z,65.15
2023-01-17T19:00:50.361Z,71.18
2023-01-17T19:01:47.543Z,34.47
2023-01-17T19:02:44.265Z,26.60
2023-01-17T19:03:42.615Z,39.88
2023-01-17T19:04:39.243Z,13.80
2023-01-17T19:05:36.254Z,19.98
2023-01-17T19:06:40.064Z,20.75
2023-01-17T19:07:36.794Z,29.65
2023-01-17T19:08:35.049Z,13.05
2023-01-17T19:09:32.301Z,25.35
2023-01-17T19:10:30.332Z,49.08
2023-01-17T19:11:28.265Z,37.55
2023-01-17T19:12:25.297Z,17.50
2023-01-17T19:13:21.938Z,47.05
2023-01-17T19:14:18.679Z,19.05
2023-01-17T19:15:15.573Z,25.20
2023-01-17T19:16:17.588Z,24.17
2023-01-17T19:17:14.171Z,114.72
2023-01-17T19:18:10.862Z,96.28
2023-01-17T19:19:13.078Z,46.05
2023-01-17T19:20:10.319Z,12.88
2023-01-17T19:21:18.888Z,47.20
2023-01-17T19:22:15.507Z,34.72
2023-01-17T19:23:12.133Z,24.58
2023-01-17T19:24:11.070Z,172.55
2023-01-17T19:25:08.043Z,94.30
2023-01-17T19:26:06.383Z,60.10
2023-01-17T19:27:03.139Z,54.53
2023-01-17T19:27:59.696Z,61.63
2023-01-17T19:28:58.964Z,32.05
2023-01-17T19:29:55.603Z,21.40
2023-01-17T19:31:01.942Z,113.03
2023-01-17T19:31:58.919Z,55.40
2023-01-17T19:32:56.071Z,38.55
2023-01-17T19:33:57.436Z,26.25
2023-01-17T19:34:54.133Z,15.57
2023-01-17T19:35:50.764Z,13.93
2023-01-17T19:36:47.632Z,20.83
2023-01-17T19:37:46.338Z,58.67
2023-01-17T19:38:52.278Z,110.13
2023-01-17T19:39:55.533Z,26.85
2023-01-17T19:40:52.136Z,54.92
2023-01-17T19:41:48.708Z,11.40
2023-01-17T19:42:45.684Z,35.92
2023-01-17T19:43:43.184Z,49.42
2023-01-17T19:44:39.749Z,27.25
2023-01-17T19:45:36.352Z,20.10
2023-01-17T19:46:33.792Z,14.55
2023-01-17T19:47:31.150Z,28.25
2023-01-17T19:48:28.154Z,42.78
2023-01-17T19:49:24.745Z,80.35
2023-01-17T19:50:21.405Z,40.35
2023-01-17T19:51:18.075Z,134.02
2023-01-17T19:52:14.692Z,12.95
2023-01-17T19:53:11.299Z,7.90
2023-01-17T19:54:08.566Z,5.63
2023-01-17T19:55:07.108Z,7.13
2023-01-17T19:56:07.296Z,5.20
2023-01-17T19:57:03.950Z,7.57
2023-01-17T19:58:00.564Z,5.35
2023-01-17T19:59:01.222Z,13.75
2023-01-17T19:59:58.276Z,14.77
2023-01-17T20:00:55.352Z,22.27
2023-01-17T20:01:52.244Z,15.65
2023-01-17T20:02:49.027Z,28.05
2023-01-17T20:03:46.482Z,11.55
2023-01-17T20:04:43.226Z,17.50
2023-01-17T20:05:39.900Z,18.45
2023-01-17T20:06:36.927Z,21.95
2023-01-17T20:07:34.049Z,12.52
2023-01-17T20:08:31.140Z,15.57
2023-01-17T20:09:29.852Z,8.60
2023-01-17T20:10:26.939Z,19.83
2023-01-17T20:11:25.088Z,24.20
2023-01-17T20:12:21.684Z,53.55
2023-01-17T20:13:18.296Z,14.10
2023-01-17T20:14:16.520Z,9.10
2023-01-17T20:15:13.143Z,14.75
2023-01-17T20:16:12.060Z,21.90
2023-01-17T20:17:08.797Z,10.95
2023-01-17T20:18:05.482Z,34.08
2023-01-17T20:19:02.798Z,10.75
2023-01-17T20:19:59.583Z,5.38
2023-01-17T20:21:01.557Z,13.30
2023-01-17T20:21:58.366Z,8.85
2023-01-17T20:22:55.549Z,7.75
2023-01-17T20:23:54.517Z,70.25
2023-01-17T20:24:51.411Z,28.05
2023-01-17T20:25:59.176Z,46.72
2023-01-17T20:26:58.062Z,15.57
2023-01-17T20:27:55.278Z,25.58
2023-01-17T20:28:53.373Z,8.43
2023-01-17T20:29:50.463Z,10.98
2023-01-17T20:30:47.088Z,29.17
2023-01-17T20:31:44.798Z,35.65
2023-01-17T20:32:41.490Z,52.28
2023-01-17T20:33:39.612Z,5.22
2023-01-17T20:34:36.273Z,10.50
2023-01-17T20:35:33.502Z,12.70
2023-01-17T20:36:30.317Z,15.38
2023-01-17T20:37:26.888Z,17.48
2023-01-17T20:38:29.755Z,15.32
2023-01-17T20:39:26.612Z,44.95
2023-01-17T20:40:23.273Z,25.98
2023-01-17T20:41:21.413Z,11.88
2023-01-17T20:42:18.586Z,12.93
2023-01-17T20:43:15.287Z,5.50
2023-01-17T20:44:15.315Z,27.45
2023-01-17T20:45:12.367Z,30.10
2023-01-17T20:46:10.064Z,19.63
2023-01-17T20:47:06.963Z,13.15
2023-01-17T20:48:04.959Z,77.03
2023-01-17T20:49:05.494Z,19.23
2023-01-17T20:50:04.006Z,21.67
2023-01-17T20:51:10.641Z,14.55
2023-01-17T20:52:07.390Z,7.50
2023-01-17T20:53:04.057Z,16.20
2023-01-17T20:54:03.621Z,9.07
2023-01-17T20:55:00.379Z,13.95
2023-01-17T20:55:57.676Z,5.47
2023-01-17T20:56:55.473Z,9.65
2023-01-17T20:57:52.770Z,8.43
2023-01-17T20:58:52.018Z,6.90
2023-01-17T20:59:49.011Z,12.18
2023-01-17T21:00:45.664Z,10.57
2023-01-17T21:01:43.847Z,7.97
2023-01-17T21:02:40.735Z,7.22
2023-01-17T21:03:38.688Z,8.88
2023-01-17T21:04:35.332Z,7.07
2023-01-17T21:05:31.998Z,10.13
2023-01-17T21:06:28.922Z,8.20
2023-01-17T21:07:26.715Z,9.50
2023-01-17T21:08:23.378Z,7.90
2023-01-17T21:09:21.415Z,10.65
2023-01-17T21:10:18.175Z,12.70
2023-01-17T21:11:17.546Z,9.23
2023-01-17T21:12:16.006Z,6.65
2023-01-17T21:13:12.665Z,5.72
2023-01-17T21:14:09.347Z,3.63
2023-01-17T21:15:06.678Z,3.97
2023-01-17T21:16:03.737Z,5.60
2023-01-17T21:17:00.528Z,5.25
2023-01-17T21:17:57.501Z,7.63
2023-01-17T21:18:54.635Z,5.85
2023-01-17T21:19:51.276Z,7.70
2023-01-17T21:20:48.952Z,4.97
2023-01-17T21:21:46.117Z,8.50
2023-01-17T21:22:42.938Z,5.80
2023-01-17T21:23:41.942Z,9.40
2023-01-17T21:24:38.797Z,4.05
2023-01-17T21:25:36.224Z,7.15
2023-01-17T21:26:32.945Z,7.22
2023-01-17T21:27:29.655Z,7.45
2023-01-17T21:28:29.683Z,5.38
2023-01-17T21:29:29.236Z,6.38
2023-01-17T21:30:26.091Z,11.60
2023-01-17T21:31:26.304Z,6.18
2023-01-17T21:32:23.351Z,7.03
2023-01-17T21:33:21.712Z,8.35
2023-01-17T21:34:18.396Z,5.60
2023-01-17T21:35:15.095Z,3.33
2023-01-17T21:36:12.032Z,7.43
2023-01-17T21:37:08.627Z,8.63
2023-01-17T21:38:05.709Z,4.10
2023-01-17T21:39:05.354Z,5.88
2023-01-17T21:40:04.354Z,5.10
2023-01-17T21:41:03.031Z,3.55
2023-01-17T21:41:59.652Z,6.38
2023-01-17T21:42:56.364Z,5.25
2023-01-17T21:44:01.329Z,3.55
2023-01-17T21:44:58.022Z,4.20
2023-01-17T21:45:54.884Z,8.40
2023-01-17T21:46:56.463Z,6.60
2023-01-17T21:47:53.388Z,4.82
2023-01-17T21:48:50.096Z,3.75
2023-01-17T21:49:46.896Z,4.10
2023-01-17T21:50:43.584Z,4.72
2023-01-17T21:52:01.896Z,7.53
2023-01-17T21:52:58.524Z,3.47
2023-01-17T21:53:55.130Z,3.92
2023-01-17T21:55:10.409Z,5.88
2023-01-17T21:56:28.958Z,4.88
2023-01-17T21:57:43.813Z,6.90
2023-01-17T21:58:46.084Z,2.92
2023-01-17T21:59:42.664Z,7.65
2023-01-17T22:00:43.027Z,4.97
2023-01-17T22:01:39.780Z,4.70
2023-01-17T22:02:36.546Z,12.20
2023-01-17T22:03:33.626Z,10.13
2023-01-17T22:04:30.281Z,11.25
2023-01-17T22:05:27.065Z,9.10
2023-01-17T22:06:26.515Z,7.65
2023-01-17T22:07:24.793Z,7.68
2023-01-17T22:08:21.408Z,2.55
2023-01-17T22:09:18.008Z,3.90
2023-01-17T22:10:14.725Z,7.82
2023-01-17T22:11:16.571Z,3.17
2023-01-17T22:12:13.111Z,4.75
2023-01-17T22:13:10.345Z,3.63
2023-01-17T22:14:07.398Z,5.30
2023-01-17T22:15:04.361Z,6.82
2023-01-17T22:16:03.096Z,3.28
2023-01-17T22:16:59.728Z,7.63
2023-01-17T22:17:56.685Z,5.85
2023-01-17T22:18:53.825Z,5.25
2023-01-17T22:19:50.734Z,6.75
2023-01-17T22:20:47.334Z,9.23
2023-01-17T22:21:43.932Z,7.40
2023-01-17T22:22:40.557Z,5.32
2023-01-17T22:23:37.484Z,3.92
2023-01-17T22:24:34.374Z,5.13
2023-01-17T22:25:31.001Z,3.53
2023-01-17T22:26:29.450Z,6.88
2023-01-17T22:27:28.617Z,3.67
2023-01-17T22:28:25.258Z,4.47
2023-01-17T22:29:22.858Z,2.53
2023-01-17T22:30:19.544Z,3.28
2023-01-17T22:31:25.634Z,5.25
2023-01-17T22:32:22.917Z,8.57
2023-01-17T22:33:21.024Z,5.47
2023-01-17T22:34:19.048Z,5.53
2023-01-17T22:35:15.683Z,4.00
2023-01-17T22:36:13.906Z,3.03
2023-01-17T22:37:10.507Z,7.70
2023-01-17T22:38:07.132Z,4.25
2023-01-17T22:39:03.899Z,7.03
2023-01-17T22:40:04.615Z,3.13
2023-01-17T22:41:09.572Z,6.45
2023-01-17T22:42:06.466Z,3.90
2023-01-17T22:43:03.711Z,3.78
2023-01-17T22:44:05.579Z,3.45
2023-01-17T22:45:02.201Z,5.40
2023-01-17T22:46:00.232Z,3.80
2023-01-17T22:46:56.798Z,8.20
2023-01-17T22:47:53.430Z,5.35
2023-01-17T22:48:50.176Z,5.07
2023-01-17T22:49:46.865Z,7.47
2023-01-17T22:50:43.415Z,9.90
2023-01-17T22:51:40.106Z,2.45
2023-01-17T22:52:36.714Z,3.97
2023-01-17T22:53:33.394Z,4.60
2023-01-17T22:54:30.029Z,6.50
2023-01-17T22:55:26.662Z,4.00
2023-01-17T22:56:29.471Z,3.25
2023-01-17T22:57:26.061Z,3.95
2023-01-17T22:58:23.082Z,4.72
2023-01-17T22:59:19.771Z,2.13
2023-01-17T23:00:16.688Z,6.28
2023-01-17T23:01:21.964Z,6.10
2023-01-17T23:02:18.674Z,7.07
2023-01-17T23:03:15.325Z,6.75
2023-01-17T23:04:14.036Z,8.52
2023-01-17T23:05:10.987Z,6.72
2023-01-17T23:06:13.201Z,4.50
2023-01-17T23:07:09.886Z,6.05
2023-01-17T23:08:06.508Z,6.18
2023-01-17T23:09:09.014Z,4.00
2023-01-17T23:11:20.809Z,4.60
2023-01-17T23:12:17.433Z,9.52
2023-01-17T23:13:14.196Z,6.10
2023-01-17T23:14:22.320Z,4.85
2023-01-17T23:15:37.474Z,6.05
2023-01-17T23:16:52.691Z,5.72
2023-01-17T23:18:07.861Z,6.40
2023-01-17T23:19:22.397Z,9.93
2023-01-17T23:20:19.054Z,10.82
2023-01-17T23:21:15.636Z,6.30
2023-01-17T23:22:20.975Z,4.45
2023-01-17T23:23:17.571Z,4.85
2023-01-17T23:24:14.124Z,4.97
2023-01-17T23:25:13.364Z,5.50
2023-01-17T23:26:10.094Z,4.40
2023-01-17T23:27:25.197Z,3.40
2023-01-17T23:28:21.804Z,2.35
2023-01-17T23:29:18.860Z,5.60
2023-01-17T23:30:20.891Z,9.65
2023-01-17T23:31:17.509Z,6.80
2023-01-17T23:32:14.176Z,3.53
2023-01-17T23:33:14.046Z,6.63
2023-01-17T23:34:10.792Z,5.80
2023-01-17T23:35:07.932Z,9.48
2023-01-17T23:36:09.298Z,5.20
2023-01-17T23:37:05.920Z,8.18
2023-01-17T23:38:21.179Z,4.53
2023-01-17T23:39:17.709Z,5.07
2023-01-17T23:40:15.334Z,3.65
2023-01-17T23:41:30.640Z,5.70
2023-01-17T23:42:45.716Z,6.50
2023-01-17T23:43:42.354Z,5.60
2023-01-17T23:44:38.998Z,9.00
2023-01-17T23:45:37.600Z,6.25
2023-01-17T23:46:35.030Z,8.00
2023-01-17T23:47:31.595Z,11.52
2023-01-17T23:48:29.167Z,4.28
2023-01-17T23:49:27.954Z,5.35
2023-01-17T23:50:24.581Z,4.82
2023-01-17T23:51:21.267Z,6.38
2023-01-17T23:52:17.862Z,6.95
2023-01-17T23:53:22.390Z,10.95
2023-01-17T23:54:19.310Z,7.22
2023-01-17T23:55:16.036Z,3.35
2023-01-17T23:56:23.113Z,13.30
2023-01-17T23:57:19.836Z,7.88
2023-01-17T23:58:16.510Z,7.70
2023-01-17T23:59:13.106Z,6.13
